KLPC/LPC METAR and TAF weather

Enter ICAO airport designator
Station Type Date Time Source
KLPC METAR 2019/08/22 15:56 UTC NOAA

KLPC 221556Z AUTO 11003KT 10SM SCT006 18/14 A2981 RMK AO2 SLP096 T01780144


Station Type Date Time Source
KLPC Decoded METAR 2019/08/22 15:56 UTC NOAA

Station name not available
Aug 22, 2019 - 11:56 AM EDT / 2019.08.22 1556 UTC
Wind: from the ESE (110 degrees) at 3 MPH (3 KT):0
Visibility: 10 mile(s):0
Sky conditions: partly cloudy
Temperature: 64.0 F (17.8 C)
Dew Point: 57.9 F (14.4 C)
Relative Humidity: 80%
Pressure (altimeter): 29.81 in. Hg (1009 hPa)
ob: KLPC 221556Z AUTO 11003KT 10SM SCT006 18/14 A2981 RMK AO2 SLP096 T01780144
cycle: 16

Station Type Date Time Source
KLPC TAF UTC NOAA

Error!

Example: see airport list